Time;durP1;ratioP1;P1;durP2;ratioP2;P2;SDS_P1;SDS_P2;PMS_P1;PMS_P2;Temp;Humidity;BMP_temperature;BMP_pressure;BME280_temperature;BME280_humidity;BME280_pressure;Samples;Min_cycle;Max_cycle;Signal;HPM_P1;HPM_P2
2021/07/13 00:01:25;;;;;;;7.70;1.98;;;;;;;19.88;56.97;100935.91;1680808;84;21287;-67
2021/07/13 00:03:58;;;;;;;3.50;1.75;;;;;;;19.83;57.14;100934.30;1683391;84;21197;-66
2021/07/13 00:06:33;;;;;;;5.87;1.90;;;;;;;19.79;57.12;100936.16;1677783;84;21337;-66
2021/07/13 00:09:07;;;;;;;8.33;2.12;;;;;;;19.74;57.18;100930.55;1684177;84;21367;-67
2021/07/13 00:11:41;;;;;;;5.70;1.80;;;;;;;19.72;56.95;100927.26;1699030;84;21296;-66
2021/07/13 00:14:15;;;;;;;6.70;2.02;;;;;;;19.68;56.84;100928.63;1697161;84;21324;-66
2021/07/13 00:16:49;;;;;;;4.75;2.00;;;;;;;19.64;57.05;100925.48;1692588;83;21378;-67
2021/07/13 00:19:22;;;;;;;7.10;2.40;;;;;;;19.60;57.19;100934.83;1686490;84;21304;-67
2021/07/13 00:21:55;;;;;;;6.35;2.25;;;;;;;19.57;57.40;100931.19;1701383;84;21815;-67
2021/07/13 00:24:29;;;;;;;5.47;2.10;;;;;;;19.53;57.61;100937.03;1688211;84;21287;-67
2021/07/13 00:27:03;;;;;;;8.20;2.08;;;;;;;19.47;57.71;100935.91;1645031;86;21285;-67
2021/07/13 00:29:36;;;;;;;12.50;2.85;;;;;;;19.43;57.78;100938.10;1639823;87;21390;-67
2021/07/13 00:32:09;;;;;;;16.63;4.93;;;;;;;19.39;58.17;100939.97;1701471;84;21292;-67
2021/07/13 00:34:42;;;;;;;21.20;8.08;;;;;;;19.33;58.46;100933.98;1689450;84;21292;-67
2021/07/13 00:37:15;;;;;;;53.05;18.20;;;;;;;19.31;58.48;100930.68;1685212;84;21308;-66
2021/07/13 00:39:50;;;;;;;27.73;8.18;;;;;;;19.27;58.63;100934.17;1695143;84;21344;-66
2021/07/13 00:42:23;;;;;;;19.37;6.97;;;;;;;19.26;58.52;100936.52;1688410;84;21176;-67
2021/07/13 00:44:56;;;;;;;7.37;3.90;;;;;;;19.24;58.48;100940.35;1681220;84;21227;-66
2021/07/13 00:47:30;;;;;;;15.63;6.03;;;;;;;19.20;58.45;100937.73;1686347;84;21347;-66
2021/07/13 00:50:04;;;;;;;10.53;3.95;;;;;;;19.18;58.68;100939.70;1694812;83;21299;-66
2021/07/13 00:52:37;;;;;;;;;;;;;;;19.15;58.91;100940.91;1688244;83;21818;-66
2021/07/13 00:55:12;;;;;;;14.13;3.80;;;;;;;19.11;58.98;100946.22;1690376;83;20300;-66
2021/07/13 00:57:45;;;;;;;11.25;3.83;;;;;;;19.05;59.19;100944.77;1688354;84;21197;-67
2021/07/13 01:00:21;;;;;;;14.53;6.63;;;;;;;19.00;59.29;100945.30;1685544;83;21297;-67
2021/07/13 01:02:58;;;;;;;15.38;5.42;;;;;;;18.97;59.51;100948.78;1697017;84;21275;-67
2021/07/13 01:05:42;;;;;;;12.37;4.80;;;;;;;18.91;59.61;100948.16;1686109;84;21319;-67
2021/07/13 01:08:41;;;;;;;12.70;3.87;;;;;;;18.87;59.78;100951.64;1686374;84;21403;-66
2021/07/13 01:11:33;;;;;;;6.15;2.45;;;;;;;18.81;60.11;100948.38;1689364;84;21201;-67
2021/07/13 01:14:22;;;;;;;8.63;2.35;;;;;;;18.74;60.49;100946.91;1668076;84;21283;-68
2021/07/13 01:17:10;;;;;;;5.42;2.00;;;;;;;18.69;60.77;100950.58;1668548;84;21249;-68
2021/07/13 01:20:03;;;;;;;5.33;2.08;;;;;;;18.61;61.16;100950.59;1683421;84;21177;-67
2021/07/13 01:22:42;;;;;;;3.20;2.15;;;;;;;18.54;61.42;100948.30;1701257;84;21296;-67
2021/07/13 01:25:47;;;;;;;7.53;2.45;;;;;;;18.46;61.77;100957.59;1672027;84;21184;-66
2021/07/13 01:28:21;;;;;;;7.40;2.45;;;;;;;18.37;62.13;100954.60;1693023;84;21193;-66
2021/07/13 01:31:00;;;;;;;7.65;3.40;;;;;;;18.30;62.45;100953.62;1683913;84;21775;-67
2021/07/13 01:33:36;;;;;;;9.35;3.55;;;;;;;18.26;62.75;100955.46;1676569;84;21322;-67
2021/07/13 01:36:26;;;;;;;6.42;3.40;;;;;;;18.23;62.96;100951.81;1679092;83;21211;-67
2021/07/13 01:39:00;;;;;;;7.67;2.72;;;;;;;18.17;63.21;100951.48;1698126;84;21201;-67
2021/07/13 01:41:33;;;;;;;;;;;;;;;18.12;63.51;100956.49;1699757;84;21272;-68
2021/07/13 01:44:07;;;;;;;13.95;7.45;;;;;;;18.10;63.75;100955.80;1699031;84;20231;-68
2021/07/13 01:46:40;;;;;;;19.07;8.23;;;;;;;18.06;64.01;100957.14;1687858;84;21276;-68
2021/07/13 01:49:19;;;;;;;14.90;7.45;;;;;;;18.05;64.18;100956.00;1690778;84;21292;-68
2021/07/13 01:51:49;;;;;;;10.72;6.72;;;;;;;18.06;64.29;100954.49;1689610;84;21340;-67
2021/07/13 01:54:26;;;;;;;12.85;5.10;;;;;;;18.08;64.40;100955.16;1683340;84;21846;-67
2021/07/13 01:57:00;;;;;;;15.68;4.08;;;;;;;18.13;64.53;100956.80;1694570;84;21205;-67
2021/07/13 01:59:34;;;;;;;12.63;2.85;;;;;;;18.17;64.54;100950.16;1674921;84;21276;-67
2021/07/13 02:02:08;;;;;;;5.40;2.90;;;;;;;18.24;64.51;100954.81;1687641;84;21196;-66
2021/07/13 02:04:43;;;;;;;6.70;2.50;;;;;;;18.28;64.45;100950.81;1677433;84;21157;-67
2021/07/13 02:07:16;;;;;;;13.78;2.62;;;;;;;18.32;64.43;100960.11;1677959;84;21283;-67
2021/07/13 02:09:50;;;;;;;4.17;2.58;;;;;;;18.33;64.37;100952.46;1681814;84;21340;-66
2021/07/13 02:12:24;;;;;;;4.65;2.80;;;;;;;18.36;64.36;100956.95;1681733;84;21272;-67
2021/07/13 02:14:58;;;;;;;;;;;;;;;18.39;64.21;100951.80;1677226;84;21236;-67
2021/07/13 02:17:31;;;;;;;10.98;3.35;;;;;;;18.44;64.19;100953.42;1689078;84;20637;-67
2021/07/13 02:20:09;;;;;;;7.37;3.30;;;;;;;18.46;64.07;100962.09;1692975;84;21279;-67
2021/07/13 02:22:43;;;;;;;10.75;3.20;;;;;;;18.49;64.07;100957.75;1683061;84;21184;-68
2021/07/13 02:25:17;;;;;;;8.08;3.35;;;;;;;18.53;63.94;100958.56;1700171;84;21198;-68
2021/07/13 02:28:11;;;;;;;7.30;3.27;;;;;;;18.59;63.77;100962.37;1684154;84;21296;-66
2021/07/13 02:30:46;;;;;;;;;;;;;;;18.65;63.62;100958.53;1681726;84;21351;-66
2021/07/13 02:33:30;;;;;;;5.15;3.30;;;;;;;18.77;63.40;100965.64;1679850;84;20562;-67
2021/07/13 02:36:07;;;;;;;8.03;3.02;;;;;;;18.91;63.19;100958.28;1686195;84;21292;-66
2021/07/13 02:38:41;;;;;;;4.58;2.80;;;;;;;19.11;62.71;100965.30;1690919;83;21304;-66
2021/07/13 02:41:16;;;;;;;6.87;2.87;;;;;;;19.29;62.21;100964.05;1699218;84;21193;-65
2021/07/13 02:43:50;;;;;;;8.93;2.40;;;;;;;19.52;61.65;100965.91;1666576;84;21192;-64
2021/07/13 02:46:24;;;;;;;8.50;2.75;;;;;;;19.74;61.02;100967.75;1693148;84;21189;-64
2021/07/13 02:48:58;;;;;;;5.07;2.23;;;;;;;19.92;60.48;100966.42;1673707;84;21729;-64
2021/07/13 02:51:31;;;;;;;4.78;2.45;;;;;;;20.11;60.00;100967.25;1693067;84;21289;-64
2021/07/13 02:54:06;;;;;;;2.75;2.08;;;;;;;20.27;59.39;100965.48;1699262;84;21370;-64
2021/07/13 02:56:41;;;;;;;6.05;2.40;;;;;;;20.40;58.82;100966.50;1686922;84;21291;-65
2021/07/13 02:59:14;;;;;;;4.40;2.33;;;;;;;20.53;58.49;100974.69;1684213;84;21300;-65
2021/07/13 03:01:49;;;;;;;5.62;2.35;;;;;;;20.65;58.11;100975.88;1697070;84;21315;-65
2021/07/13 03:04:22;;;;;;;4.22;2.12;;;;;;;20.79;57.77;100975.05;1687301;84;21289;-66
2021/07/13 03:06:57;;;;;;;9.80;2.10;;;;;;;20.93;57.36;100973.88;1694758;84;21206;-66
2021/07/13 03:09:29;;;;;;;5.22;2.30;;;;;;;21.07;56.99;100977.05;1680147;84;21219;-66
2021/07/13 03:12:03;;;;;;;6.87;2.00;;;;;;;21.20;56.52;100980.71;1679063;84;21315;-65
2021/07/13 03:14:40;;;;;;;5.33;2.50;;;;;;;21.38;55.88;100981.61;1696318;84;21328;-65
2021/07/13 03:17:16;;;;;;;3.95;2.40;;;;;;;21.55;55.21;100979.03;1688676;84;21731;-66
2021/07/13 03:19:50;;;;;;;2.17;1.80;;;;;;;21.73;54.54;100977.27;1683699;84;21355;-66
2021/07/13 03:22:36;;;;;;;8.58;2.12;;;;;;;21.94;53.98;100979.95;1699333;84;21296;-66
2021/07/13 03:25:13;;;;;;;4.70;1.95;;;;;;;22.19;53.70;100977.70;1701304;84;21336;-67
2021/07/13 03:27:46;;;;;;;7.05;2.20;;;;;;;22.43;53.19;100981.23;1674688;84;21720;-67
2021/07/13 03:30:20;;;;;;;4.80;1.95;;;;;;;22.70;52.66;100990.59;1669826;84;21296;-67
2021/07/13 03:32:54;;;;;;;13.88;2.62;;;;;;;22.97;52.11;100988.05;1676764;84;21338;-67
2021/07/13 03:35:29;;;;;;;8.93;3.60;;;;;;;23.29;51.57;100985.48;1681356;84;21843;-68
2021/07/13 03:38:02;;;;;;;6.55;4.33;;;;;;;23.64;50.79;100984.90;1696068;84;21296;-67
2021/07/13 03:40:35;;;;;;;8.83;4.55;;;;;;;24.01;49.86;100983.47;1688450;84;21283;-67
2021/07/13 03:43:09;;;;;;;12.35;4.78;;;;;;;24.40;48.90;100984.83;1672072;84;21716;-67
2021/07/13 03:45:43;;;;;;;11.65;4.65;;;;;;;25.28;47.00;100990.02;1690274;84;21157;-67
2021/07/13 03:48:16;;;;;;;9.48;3.80;;;;;;;25.28;47.00;100990.02;1677221;84;21404;-67
2021/07/13 03:50:50;;;;;;;5.80;3.00;;;;;;;25.77;45.75;100988.80;1692135;84;21216;-67
2021/07/13 03:53:23;;;;;;;9.48;3.42;;;;;;;26.29;44.43;100985.44;1652320;86;21212;-67
2021/07/13 03:55:56;;;;;;;12.43;3.90;;;;;;;26.84;43.22;100983.13;1658207;86;21311;-68
2021/07/13 03:58:29;;;;;;;;;;;;;;;27.41;42.09;100989.03;1683359;84;21192;-67
2021/07/13 04:01:02;;;;;;;9.23;2.92;;;;;;;27.98;40.82;100987.02;1681454;84;20175;-68
2021/07/13 04:03:36;;;;;;;12.03;3.00;;;;;;;28.45;39.71;100981.95;1702014;84;21328;-68
2021/07/13 04:06:09;;;;;;;8.93;2.92;;;;;;;28.99;38.70;100990.17;1692908;84;21304;-69
2021/07/13 04:08:42;;;;;;;8.73;2.80;;;;;;;29.50;37.87;100991.97;1669778;84;21328;-68
2021/07/13 04:11:16;;;;;;;9.75;2.75;;;;;;;30.07;36.89;100987.85;1678915;84;21189;-68
2021/07/13 04:13:49;;;;;;;6.87;2.70;;;;;;;30.64;35.89;100991.97;1685563;84;21205;-67
2021/07/13 04:16:23;;;;;;;7.47;2.80;;;;;;;31.13;35.07;100988.80;1689537;84;21292;-68
2021/07/13 04:18:59;;;;;;;6.12;2.12;;;;;;;31.61;34.49;100992.04;1691069;84;21275;-68
2021/07/13 04:21:33;;;;;;;7.60;2.02;;;;;;;32.07;33.47;100991.39;1699449;84;21283;-68
2021/07/13 04:24:07;;;;;;;6.25;1.95;;;;;;;32.50;32.65;100999.30;1699222;83;21308;-68
2021/07/13 04:26:40;;;;;;;3.42;2.05;;;;;;;32.89;31.43;101002.45;1694647;84;21328;-68
2021/07/13 04:29:14;;;;;;;7.28;1.70;;;;;;;33.23;31.05;101009.13;1682024;84;21235;-68
2021/07/13 04:31:48;;;;;;;5.12;1.45;;;;;;;33.59;27.99;101006.50;1675799;84;21308;-68
2021/07/13 04:34:22;;;;;;;3.85;1.47;;;;;;;33.71;26.64;101012.49;1684800;84;21308;-68
2021/07/13 04:36:55;;;;;;;8.75;1.70;;;;;;;34.03;25.78;101017.67;1692558;84;21233;-69
2021/07/13 04:39:29;;;;;;;8.93;1.62;;;;;;;34.42;25.14;101019.55;1699344;84;21165;-69
2021/07/13 04:42:02;;;;;;;6.65;1.70;;;;;;;34.83;24.86;101016.19;1681512;83;21806;-67
2021/07/13 04:44:35;;;;;;;5.12;1.40;;;;;;;35.23;24.24;101018.50;1680519;84;21299;-68
2021/07/13 04:47:09;;;;;;;7.50;1.85;;;;;;;35.61;23.64;101021.83;1681063;84;21757;-68
2021/07/13 04:49:42;;;;;;;7.87;1.60;;;;;;;35.87;23.17;101016.45;1667151;84;21892;-69
2021/07/13 04:52:15;;;;;;;7.53;1.50;;;;;;;36.13;22.69;101012.44;1668030;84;21284;-70
2021/07/13 04:54:48;;;;;;;3.85;1.62;;;;;;;36.36;22.41;101017.10;1668130;82;21554;-67
2021/07/13 04:57:21;;;;;;;8.60;2.17;;;;;;;36.67;22.29;101020.34;1674829;83;21173;-70
2021/07/13 04:59:54;;;;;;;10.68;1.85;;;;;;;36.98;21.47;101020.26;1676579;83;21766;-68
2021/07/13 05:02:27;;;;;;;22.25;2.12;;;;;;;37.33;20.93;101014.85;1673561;83;21180;-66
2021/07/13 05:05:01;;;;;;;11.18;2.00;;;;;;;37.48;20.72;101017.40;1658508;84;21180;-70
2021/07/13 05:07:39;;;;;;;13.85;2.50;;;;;;;37.70;20.91;101019.52;1668285;82;21225;-72
2021/07/13 05:10:14;;;;;;;10.82;1.75;;;;;;;37.93;20.39;101017.83;1655655;83;21339;-72
2021/07/13 05:12:47;;;;;;;10.20;1.30;;;;;;;38.28;19.78;101017.22;1668848;83;21300;-73
2021/07/13 05:15:20;;;;;;;6.08;1.35;;;;;;;38.48;19.33;101019.55;1676924;83;21251;-73
2021/07/13 05:17:53;;;;;;;10.30;1.52;;;;;;;38.60;19.17;101025.92;1668120;82;22011;-72
2021/07/13 05:20:27;;;;;;;8.30;1.55;;;;;;;38.81;19.22;101021.09;1673235;82;21196;-70
2021/07/13 05:23:06;;;;;;;10.00;1.65;;;;;;;38.86;18.40;101022.95;1666202;82;21804;-69
2021/07/13 05:25:35;;;;;;;10.50;1.52;;;;;;;39.08;18.15;101021.62;1679856;82;21840;-67
2021/07/13 05:28:12;;;;;;;6.35;1.10;;;;;;;39.39;17.70;101020.41;1657443;83;21339;-71
2021/07/13 05:30:46;;;;;;;8.50;1.50;;;;;;;39.53;17.49;101019.80;1661349;83;21338;-72
2021/07/13 05:33:19;;;;;;;10.32;1.50;;;;;;;39.62;17.58;101023.47;1664138;83;21208;-69
2021/07/13 05:35:52;;;;;;;13.43;1.57;;;;;;;39.98;17.23;101024.22;1662735;84;21204;-72
2021/07/13 05:38:25;;;;;;;17.25;1.98;;;;;;;40.33;16.81;101018.38;1667480;83;21961;-68
2021/07/13 05:40:58;;;;;;;11.93;1.70;;;;;;;40.39;16.27;101023.95;1671410;82;21330;-72
2021/07/13 05:43:32;;;;;;;7.92;1.22;;;;;;;40.55;16.31;101025.20;1663322;83;21793;-71
2021/07/13 05:46:05;;;;;;;6.03;1.25;;;;;;;40.57;16.07;101033.11;1672113;83;21367;-69
2021/07/13 05:48:38;;;;;;;1.98;1.20;;;;;;;40.56;15.69;101027.36;1670799;83;21294;-69
2021/07/13 05:51:11;;;;;;;6.45;1.30;;;;;;;40.44;15.43;101025.77;1672763;83;21351;-67
2021/07/13 05:53:46;;;;;;;4.25;1.25;;;;;;;40.26;15.67;101020.76;1659044;84;21248;-70
2021/07/13 05:56:19;;;;;;;6.62;1.25;;;;;;;40.24;15.72;101026.57;1660720;83;22529;-69
2021/07/13 05:58:53;;;;;;;6.83;1.52;;;;;;;40.30;15.73;101023.11;1672551;83;21331;-68
2021/07/13 06:01:26;;;;;;;10.88;1.30;;;;;;;40.47;15.98;101027.34;1680859;83;21308;-67
2021/07/13 06:04:02;;;;;;;4.55;1.15;;;;;;;40.81;15.60;101034.33;1682176;83;21275;-67
2021/07/13 06:06:38;;;;;;;3.60;1.35;;;;;;;41.18;15.31;101030.80;1673260;83;21189;-67
2021/07/13 06:09:11;;;;;;;7.50;1.60;;;;;;;41.49;15.16;101027.34;1675375;83;21843;-68
2021/07/13 06:11:45;;;;;;;4.05;1.07;;;;;;;41.79;14.50;101022.83;1618834;86;21188;-70
2021/07/13 06:14:18;;;;;;;4.45;1.00;;;;;;;41.81;14.44;101022.75;1674271;82;21303;-68
2021/07/13 06:16:53;;;;;;;5.87;1.02;;;;;;;41.88;14.36;101018.93;1677284;82;21243;-68
2021/07/13 06:19:26;;;;;;;9.18;1.20;;;;;;;41.90;14.20;101024.91;1675502;82;21339;-69
2021/07/13 06:21:59;;;;;;;8.93;1.50;;;;;;;41.73;14.18;101025.52;1666477;82;21728;-69
2021/07/13 06:24:33;;;;;;;4.00;0.90;;;;;;;41.83;14.82;101019.09;1661443;84;21161;-69
2021/07/13 06:27:06;;;;;;;2.72;0.98;;;;;;;41.99;13.57;101023.53;1670255;83;21239;-68
2021/07/13 06:29:39;;;;;;;8.00;1.50;;;;;;;41.89;13.81;101012.87;1673584;83;21303;-69
2021/07/13 06:32:12;;;;;;;3.40;1.30;;;;;;;41.97;14.10;101014.77;1681815;83;21347;-68
2021/07/13 06:34:46;;;;;;;5.28;1.30;;;;;;;42.28;13.36;101011.23;1679708;83;21845;-75
2021/07/13 06:37:19;;;;;;;6.55;1.20;;;;;;;42.48;13.40;101019.33;1682769;83;21363;-65
2021/07/13 06:39:52;;;;;;;5.65;1.10;;;;;;;42.48;13.49;101012.44;1689272;82;21796;-68
2021/07/13 06:42:25;;;;;;;3.98;1.20;;;;;;;42.33;13.22;101013.80;1667804;83;21282;-69
2021/07/13 06:44:58;;;;;;;6.03;1.10;;;;;;;41.95;13.12;101009.61;1682220;83;21491;-68
2021/07/13 06:47:32;;;;;;;12.33;1.65;;;;;;;41.78;13.38;101002.77;1678046;83;21335;-70
2021/07/13 06:50:06;;;;;;;4.87;1.35;;;;;;;42.02;13.35;101009.91;1675129;82;21348;-68
2021/07/13 06:52:42;;;;;;;4.97;1.17;;;;;;;42.30;12.85;101015.83;1671902;83;21355;-70
2021/07/13 06:55:15;;;;;;;7.05;1.30;;;;;;;42.61;12.90;101030.13;1685321;82;21867;-69
2021/07/13 06:57:48;;;;;;;6.05;1.17;;;;;;;42.60;12.64;101012.02;1676039;83;21292;-67
2021/07/13 07:00:21;;;;;;;4.03;1.05;;;;;;;42.63;12.76;101018.25;1679446;83;21298;-69
2021/07/13 07:02:54;;;;;;;8.63;1.17;;;;;;;42.68;12.50;101009.77;1628433;84;21262;-67
2021/07/13 07:05:27;;;;;;;11.33;1.30;;;;;;;42.76;12.75;101015.80;1625180;86;21143;-68
2021/07/13 07:08:00;;;;;;;3.75;1.45;;;;;;;42.96;12.95;101009.31;1676521;83;21346;-70
2021/07/13 07:10:33;;;;;;;4.70;1.30;;;;;;;43.29;12.62;101005.52;1663215;83;21217;-67
2021/07/13 07:13:06;;;;;;;1.87;0.80;;;;;;;43.49;12.51;101001.14;1676032;83;21887;-65
2021/07/13 07:15:40;;;;;;;2.50;1.17;;;;;;;43.50;12.13;101000.80;1661411;83;21192;-68
2021/07/13 07:18:13;;;;;;;6.62;1.20;;;;;;;43.74;12.17;100994.59;1684693;82;21350;-68
2021/07/13 07:20:46;;;;;;;4.78;1.10;;;;;;;43.90;11.94;101005.20;1674853;82;22427;-71
2021/07/13 07:23:20;;;;;;;3.02;0.93;;;;;;;44.16;12.09;100996.08;1653667;84;21321;-68
2021/07/13 07:25:53;;;;;;;2.58;0.93;;;;;;;44.24;11.87;101003.21;1610897;86;21210;-67
2021/07/13 07:28:26;;;;;;;3.12;1.15;;;;;;;44.03;11.77;100996.37;1663767;82;21842;-69
2021/07/13 07:30:59;;;;;;;1.95;1.10;;;;;;;43.74;11.70;100991.02;1661875;83;21567;-67
2021/07/13 07:33:32;;;;;;;2.22;1.10;;;;;;;43.44;12.17;100995.83;1689928;83;21257;-68
2021/07/13 07:36:06;;;;;;;5.50;1.17;;;;;;;43.30;12.04;100998.07;1672686;83;21351;-67
2021/07/13 07:38:40;;;;;;;5.67;1.20;;;;;;;43.10;12.30;100996.89;1676158;82;21397;-68
2021/07/13 07:41:13;;;;;;;5.20;1.17;;;;;;;43.03;12.75;100995.81;1634201;84;21279;-66
2021/07/13 07:43:46;;;;;;;10.70;2.05;;;;;;;43.20;12.47;101002.01;1619518;86;21313;-67
2021/07/13 07:46:20;;;;;;;3.27;1.00;;;;;;;43.35;12.33;100995.89;1628804;85;21377;-68
2021/07/13 07:48:53;;;;;;;4.22;1.00;;;;;;;43.35;12.23;100984.87;1651048;85;21184;-66
2021/07/13 07:51:28;;;;;;;9.33;2.40;;;;;;;43.45;12.61;100996.05;1612406;86;21388;-68
2021/07/13 07:54:03;;;;;;;4.60;0.85;;;;;;;43.53;12.17;100978.06;1673717;82;21395;-67
2021/07/13 07:56:36;;;;;;;3.67;1.02;;;;;;;43.45;12.12;100989.16;1679456;83;21863;-68
2021/07/13 07:59:09;;;;;;;3.83;1.12;;;;;;;43.15;12.16;100987.62;1663813;84;21558;-66
2021/07/13 08:01:42;;;;;;;4.80;1.45;;;;;;;42.86;12.60;101000.84;1668985;83;21376;-66
2021/07/13 08:04:15;;;;;;;5.87;1.40;;;;;;;42.64;12.71;100987.36;1667937;83;21188;-69
2021/07/13 08:06:50;;;;;;;3.98;0.82;;;;;;;42.69;12.65;100982.48;1671463;82;21324;-67
2021/07/13 08:09:24;;;;;;;4.90;1.10;;;;;;;42.87;12.25;100981.81;1676610;83;21295;-71
2021/07/13 08:11:58;;;;;;;2.25;0.90;;;;;;;43.06;11.92;100984.94;1681573;83;21194;-71
2021/07/13 08:14:31;;;;;;;3.80;0.85;;;;;;;42.92;11.87;100984.97;1663351;83;21843;-71
2021/07/13 08:17:05;;;;;;;2.15;1.00;;;;;;;42.58;12.04;100984.02;1672727;83;21296;-73
2021/07/13 08:19:41;;;;;;;3.37;1.00;;;;;;;42.47;12.05;100982.72;1678189;83;21328;-72
2021/07/13 08:22:14;;;;;;;2.95;1.02;;;;;;;42.47;12.11;100977.22;1669010;82;21239;-73
2021/07/13 08:24:48;;;;;;;3.00;1.10;;;;;;;42.36;12.40;100976.55;1673810;82;21290;-70
2021/07/13 08:27:21;;;;;;;4.90;1.50;;;;;;;41.94;12.35;100986.57;1653883;84;21280;-72
2021/07/13 08:29:54;;;;;;;2.40;0.80;;;;;;;41.75;12.57;100975.91;1658993;84;21960;-71
2021/07/13 08:32:27;;;;;;;3.35;1.02;;;;;;;41.98;12.48;100975.14;1679648;83;21288;-69
2021/07/13 08:35:00;;;;;;;7.75;1.32;;;;;;;42.17;12.53;100970.08;1685643;83;21362;-67
2021/07/13 08:37:36;;;;;;;1.67;1.02;;;;;;;42.11;12.45;100980.45;1671595;83;21224;-73
2021/07/13 08:40:12;;;;;;;10.13;1.07;;;;;;;41.80;12.31;100979.09;1683642;83;21340;-71
2021/07/13 08:42:46;;;;;;;1.47;0.80;;;;;;;41.45;12.74;100974.97;1672423;83;21160;-71
2021/07/13 08:45:20;;;;;;;2.37;0.70;;;;;;;41.20;12.63;100979.86;1679746;83;21342;-74
2021/07/13 08:47:54;;;;;;;4.45;0.80;;;;;;;41.01;12.57;100978.58;1662024;83;21362;-71
2021/07/13 08:50:28;;;;;;;4.15;1.02;;;;;;;40.80;12.83;100975.03;1668067;83;21162;-70
2021/07/13 08:53:03;;;;;;;2.27;0.75;;;;;;;40.81;12.57;100972.55;1634013;85;21230;-67
2021/07/13 08:55:36;;;;;;;4.50;0.93;;;;;;;40.87;12.42;100971.28;1683879;83;21393;-74
2021/07/13 08:58:14;;;;;;;5.92;1.60;;;;;;;40.90;12.46;100967.91;1680188;83;21319;-72
2021/07/13 09:00:47;;;;;;;5.78;0.90;;;;;;;40.77;12.84;100974.30;1664516;83;21385;-72
2021/07/13 09:03:21;;;;;;;1.00;0.68;;;;;;;40.26;12.40;100973.56;1661666;83;21355;-72
2021/07/13 09:06:04;;;;;;;3.25;0.80;;;;;;;39.55;12.73;100966.89;1682035;83;21338;-68
2021/07/13 09:08:37;;;;;;;3.77;0.88;;;;;;;39.10;13.59;100958.36;1682715;81;21826;-72
2021/07/13 09:11:20;;;;;;;4.47;0.80;;;;;;;38.90;13.57;100964.53;1632592;85;21207;-71
2021/07/13 09:14:03;;;;;;;3.40;0.70;;;;;;;38.91;13.75;100959.84;1680071;83;21177;-70
2021/07/13 09:16:34;;;;;;;2.95;0.93;;;;;;;38.88;13.42;100965.38;1665859;82;21534;-69
2021/07/13 09:19:07;;;;;;;3.80;1.15;;;;;;;38.82;13.77;100961.70;1676813;83;21315;-68
2021/07/13 09:21:42;;;;;;;2.75;0.88;;;;;;;38.75;14.88;100958.56;1635763;85;21193;-71
2021/07/13 09:24:22;;;;;;;1.30;0.70;;;;;;;38.71;14.77;100961.09;1623256;86;21204;-68
2021/07/13 09:26:58;;;;;;;2.98;1.00;;;;;;;38.63;14.47;100963.72;1673020;83;21841;-71
2021/07/13 09:29:45;;;;;;;5.03;1.20;;;;;;;38.43;14.41;100964.93;1664412;84;21220;-71
2021/07/13 09:32:29;;;;;;;2.65;0.93;;;;;;;38.22;15.12;100965.86;1670720;83;21858;-70
2021/07/13 09:35:13;;;;;;;5.65;1.40;;;;;;;38.15;15.08;100966.00;1673896;84;21248;-70
2021/07/13 09:37:51;;;;;;;2.15;1.00;;;;;;;38.05;15.10;100964.84;1666209;83;21798;-73
2021/07/13 09:40:20;;;;;;;4.92;1.27;;;;;;;37.79;15.40;100962.52;1675135;83;21370;-68
2021/07/13 09:42:54;;;;;;;5.95;1.17;;;;;;;37.40;15.70;100963.45;1664549;83;21889;-68
2021/07/13 09:45:36;;;;;;;3.58;0.90;;;;;;;36.92;15.65;100960.58;1682530;83;21331;-68
2021/07/13 09:48:12;;;;;;;2.37;0.95;;;;;;;36.38;16.26;100962.27;1675559;82;21180;-67
2021/07/13 09:50:49;;;;;;;1.98;0.80;;;;;;;35.92;16.32;100967.36;1691050;83;21336;-68
2021/07/13 09:53:22;;;;;;;2.95;1.17;;;;;;;35.38;16.11;100963.39;1686941;83;21335;-68
2021/07/13 09:55:56;;;;;;;1.25;0.70;;;;;;;34.83;17.14;100974.02;1682451;83;21257;-69
2021/07/13 09:58:29;;;;;;;5.08;0.75;;;;;;;34.36;17.23;100966.28;1643537;84;21304;-69
2021/07/13 10:01:02;;;;;;;9.75;1.10;;;;;;;34.13;17.17;100966.07;1676805;82;21417;-64
2021/07/13 10:03:35;;;;;;;9.98;1.27;;;;;;;34.07;17.48;100961.18;1680952;83;21390;-68
2021/07/13 10:06:08;;;;;;;5.33;1.17;;;;;;;34.10;17.60;100959.28;1641305;83;21730;-69
2021/07/13 10:08:42;;;;;;;6.20;1.00;;;;;;;34.07;18.04;100973.41;1658149;83;21764;-68
2021/07/13 10:11:16;;;;;;;26.77;2.22;;;;;;;33.86;18.23;100969.88;1662344;83;21193;-70
2021/07/13 10:13:49;;;;;;;6.33;1.00;;;;;;;33.74;18.24;100967.97;1686431;83;21336;-69
2021/07/13 10:16:23;;;;;;;8.30;1.42;;;;;;;33.74;18.58;100966.61;1677081;82;21214;-66
2021/07/13 10:18:56;;;;;;;5.90;1.10;;;;;;;33.74;17.76;100964.44;1661810;83;21303;-73
2021/07/13 10:21:29;;;;;;;;;;;;;;;33.64;18.19;100957.09;1664584;82;21395;-65
2021/07/13 10:24:04;;;;;;;3.10;0.90;;;;;;;33.54;17.85;100962.52;1676221;82;20718;-67
2021/07/13 10:26:51;;;;;;;3.35;1.25;;;;;;;33.26;18.08;100958.92;1684971;83;21311;-70
2021/07/13 10:29:37;;;;;;;5.10;1.00;;;;;;;33.06;18.71;100948.02;1666693;82;21745;-69
2021/07/13 10:32:27;;;;;;;5.35;1.25;;;;;;;33.00;18.68;100953.14;1672811;83;21367;-69
2021/07/13 10:35:10;;;;;;;7.58;1.05;;;;;;;32.88;18.78;100948.48;1668092;83;21366;-69
2021/07/13 10:37:45;;;;;;;4.60;1.35;;;;;;;32.83;18.87;100948.46;1671613;83;21256;-68
2021/07/13 10:40:34;;;;;;;3.40;1.02;;;;;;;32.78;19.00;100946.55;1630833;85;21218;-71
2021/07/13 10:43:23;;;;;;;2.33;1.10;;;;;;;32.64;19.17;100952.19;1621956;85;21998;-68
2021/07/13 10:46:11;;;;;;;5.35;0.88;;;;;;;32.49;18.73;100948.83;1685783;83;21355;-68
2021/07/13 10:48:44;;;;;;;4.25;1.50;;;;;;;32.36;18.44;100945.23;1688735;83;21217;-71
2021/07/13 10:51:20;;;;;;;4.45;1.15;;;;;;;32.27;18.74;100939.21;1673842;82;21364;-71
2021/07/13 10:53:56;;;;;;;2.65;1.47;;;;;;;32.28;18.96;100940.33;1635978;83;21355;-68
2021/07/13 10:56:32;;;;;;;5.22;1.22;;;;;;;32.32;19.19;100940.59;1658645;84;21194;-66
2021/07/13 10:59:23;;;;;;;2.95;1.00;;;;;;;32.28;19.53;100936.80;1675227;83;21322;-71
2021/07/13 11:02:12;;;;;;;8.05;1.67;;;;;;;32.26;19.48;100939.77;1680767;83;21323;-68
2021/07/13 11:04:44;;;;;;;4.40;0.82;;;;;;;32.21;19.64;100935.68;1667047;83;21320;-66
2021/07/13 11:07:22;;;;;;;4.83;1.00;;;;;;;32.14;19.46;100932.39;1673623;83;21332;-70
2021/07/13 11:09:56;;;;;;;6.33;0.93;;;;;;;32.13;19.48;100935.34;1669452;83;21858;-71
2021/07/13 11:12:29;;;;;;;2.70;1.00;;;;;;;32.07;19.02;100937.75;1636580;84;21210;-68
2021/07/13 11:15:02;;;;;;;5.80;0.90;;;;;;;31.99;18.83;100930.92;1671972;83;21366;-68
2021/07/13 11:17:35;;;;;;;7.35;1.05;;;;;;;31.96;19.34;100932.22;1674552;83;21315;-68
2021/07/13 11:20:11;;;;;;;4.17;1.20;;;;;;;31.96;19.46;100939.00;1687263;83;21224;-67
2021/07/13 11:22:47;;;;;;;2.17;1.07;;;;;;;31.87;19.68;100927.02;1678193;83;21332;-67
2021/07/13 11:25:24;;;;;;;5.15;0.90;;;;;;;31.82;19.14;100932.40;1683131;83;21291;-71
2021/07/13 11:28:03;;;;;;;4.62;1.20;;;;;;;31.78;20.01;100935.88;1671524;83;21322;-69
2021/07/13 11:30:36;;;;;;;5.22;1.00;;;;;;;31.71;19.92;100933.94;1668110;83;21165;-72
2021/07/13 11:33:11;;;;;;;6.78;1.07;;;;;;;31.70;19.94;100938.52;1684736;82;21239;-70
2021/07/13 11:35:52;;;;;;;3.83;1.15;;;;;;;31.74;20.38;100936.13;1667991;82;21206;-68
2021/07/13 11:38:30;;;;;;;2.55;1.10;;;;;;;31.76;20.04;100930.73;1668670;83;21276;-66
2021/07/13 11:41:14;;;;;;;2.85;0.93;;;;;;;31.75;19.73;100929.09;1659879;83;21379;-68
2021/07/13 11:43:52;;;;;;;5.90;0.90;;;;;;;31.75;19.29;100930.98;1676051;83;21304;-67
2021/07/13 11:46:27;;;;;;;9.20;1.22;;;;;;;31.71;19.04;100927.17;1646961;84;21399;-69
2021/07/13 11:49:19;;;;;;;3.30;0.90;;;;;;;31.67;19.15;100929.56;1653310;84;21177;-67
2021/07/13 11:52:01;;;;;;;2.15;0.90;;;;;;;31.68;18.97;100923.62;1665562;83;21850;-71
2021/07/13 11:54:35;;;;;;;2.72;0.90;;;;;;;31.67;19.29;100922.00;1671738;83;21413;-66
2021/07/13 11:57:22;;;;;;;4.42;0.90;;;;;;;31.64;19.87;100913.86;1666147;83;21355;-65
2021/07/13 11:59:47;;;;;;;7.20;1.20;;;;;;;31.67;20.00;100913.88;1664234;83;21312;-65
2021/07/13 12:02:20;;;;;;;2.45;1.25;;;;;;;31.64;21.06;100911.69;1669499;83;21280;-71